Terminal Aerodrome Forecast
Issued by NWS

Home | Current Version | Previous Version | Text Only | Print | Product List | Glossary On
Versions: 1 2 3 4 5 6 7 8 9 10 11 12 13 14 15 16 17 18
000
FTUS43 KSGF 271100
TAFJLN
TAF
KJLN 271120Z 2712/2812 36004KT 4SM BR SCT010
      TEMPO 2712/2714 1/2SM FG BKN008
     FM271400 01007KT 6SM BR SCT015
     FM271500 01008KT P6SM FEW025
     FM280100 VRB04KT P6SM SKC=

USA.gov is the U.S. government's official web portal to all federal, state and local government web resources and services.